createdAt,value
2018-07-27T00:00:56.879Z,4.27
2018-07-27T00:03:00.762Z,4.27
2018-07-27T00:05:05.030Z,4.23
2018-07-27T00:07:08.947Z,4.53
2018-07-27T00:09:13.677Z,4.33
2018-07-27T00:11:17.733Z,4.27
2018-07-27T00:13:21.597Z,4.03
2018-07-27T00:15:25.369Z,4.10
2018-07-27T00:17:29.157Z,4.37
2018-07-27T00:19:33.022Z,3.40
2018-07-27T00:21:36.788Z,4.23
2018-07-27T00:23:40.632Z,4.03
2018-07-27T00:25:44.468Z,3.60
2018-07-27T00:27:48.379Z,4.10
2018-07-27T00:29:52.190Z,4.17
2018-07-27T00:31:56.039Z,3.90
2018-07-27T00:33:59.869Z,3.30
2018-07-27T00:36:03.720Z,4.07
2018-07-27T00:38:07.489Z,3.30
2018-07-27T00:40:11.276Z,3.70
2018-07-27T00:42:15.095Z,3.97
2018-07-27T00:44:18.884Z,3.50
2018-07-27T00:46:22.723Z,3.73
2018-07-27T00:48:26.537Z,3.90
2018-07-27T00:50:30.365Z,3.80
2018-07-27T00:52:34.128Z,3.53
2018-07-27T00:54:37.906Z,3.80
2018-07-27T00:56:41.732Z,3.67
2018-07-27T00:58:45.565Z,3.50
2018-07-27T01:00:49.389Z,3.77
2018-07-27T01:02:53.416Z,3.73
2018-07-27T01:04:57.183Z,3.40
2018-07-27T01:07:01.023Z,3.90
2018-07-27T01:09:07.450Z,3.53
2018-07-27T01:11:11.360Z,3.63
2018-07-27T01:13:15.137Z,3.97
2018-07-27T01:15:19.060Z,3.80
2018-07-27T01:17:22.899Z,3.60
2018-07-27T01:19:26.687Z,3.97
2018-07-27T01:21:30.498Z,4.17
2018-07-27T01:23:34.282Z,4.03
2018-07-27T01:25:38.588Z,3.67
2018-07-27T01:27:42.620Z,3.83
2018-07-27T01:29:46.564Z,4.10
2018-07-27T01:31:50.410Z,4.10
2018-07-27T01:33:54.462Z,3.40
2018-07-27T01:35:58.280Z,4.03
2018-07-27T01:38:02.041Z,3.97
2018-07-27T01:40:06.138Z,3.60
2018-07-27T01:42:09.906Z,3.70
2018-07-27T01:44:13.723Z,3.90
2018-07-27T01:46:17.505Z,3.87
2018-07-27T01:48:21.272Z,4.10
2018-07-27T01:50:25.234Z,4.00
2018-07-27T01:52:29.026Z,3.43
2018-07-27T01:54:32.822Z,3.90
2018-07-27T01:56:36.604Z,4.27
2018-07-27T01:58:40.663Z,4.00
2018-07-27T02:01:01.270Z,4.20
2018-07-27T02:03:05.054Z,3.63
2018-07-27T02:05:09.045Z,4.10
2018-07-27T02:07:12.891Z,4.50
2018-07-27T02:09:16.758Z,3.90
2018-07-27T02:11:20.886Z,4.40
2018-07-27T02:13:24.676Z,3.77
2018-07-27T02:15:28.479Z,3.80
2018-07-27T02:17:32.476Z,3.90
2018-07-27T02:19:36.324Z,3.30
2018-07-27T02:21:40.077Z,4.10
2018-07-27T02:23:43.991Z,3.90
2018-07-27T02:25:47.915Z,3.30
2018-07-27T02:27:51.694Z,4.40
2018-07-27T02:29:55.517Z,4.00
2018-07-27T02:31:59.319Z,4.20
2018-07-27T02:34:03.080Z,4.00
2018-07-27T02:36:08.946Z,3.97
2018-07-27T02:38:13.021Z,4.70
2018-07-27T02:40:16.956Z,3.70
2018-07-27T02:42:20.777Z,4.13
2018-07-27T02:44:24.546Z,3.97
2018-07-27T02:46:28.351Z,3.80
2018-07-27T02:48:32.175Z,3.97
2018-07-27T02:50:36.144Z,4.00
2018-07-27T02:52:39.968Z,3.97
2018-07-27T02:54:43.759Z,4.30
2018-07-27T02:56:47.546Z,4.20
2018-07-27T02:58:51.476Z,4.53
2018-07-27T03:00:55.530Z,4.50
2018-07-27T03:02:59.366Z,4.30
2018-07-27T03:05:12.216Z,4.50
2018-07-27T03:07:16.802Z,4.23
2018-07-27T03:09:21.080Z,4.40
2018-07-27T03:11:25.112Z,4.60
2018-07-27T03:13:29.291Z,4.20
2018-07-27T03:15:33.388Z,4.10
2018-07-27T03:17:37.820Z,3.80
2018-07-27T03:19:41.800Z,3.47
2018-07-27T03:21:45.823Z,4.20
2018-07-27T03:23:49.880Z,3.83
2018-07-27T03:25:54.901Z,3.83
2018-07-27T03:27:58.720Z,4.43
2018-07-27T03:30:02.754Z,4.53
2018-07-27T03:32:06.545Z,4.10
2018-07-27T03:34:10.604Z,4.33
2018-07-27T03:36:14.636Z,3.90
2018-07-27T03:38:46.074Z,4.73
2018-07-27T03:40:50.475Z,4.57
2018-07-27T03:42:54.304Z,4.30
2018-07-27T03:44:58.133Z,4.50
2018-07-27T03:47:01.979Z,4.30
2018-07-27T03:49:05.803Z,4.47
2018-07-27T03:51:09.585Z,4.53
2018-07-27T03:53:13.343Z,5.20
2018-07-27T03:55:17.148Z,5.30
2018-07-27T03:57:20.925Z,4.50
2018-07-27T03:59:25.175Z,3.90
2018-07-27T04:01:29.043Z,4.90
2018-07-27T04:03:32.951Z,4.67
2018-07-27T04:05:37.127Z,4.10
2018-07-27T04:07:40.950Z,4.70
2018-07-27T04:09:44.994Z,4.43
2018-07-27T04:11:49.192Z,4.77
2018-07-27T04:13:54.641Z,4.67
2018-07-27T04:15:58.775Z,4.53
2018-07-27T04:18:02.927Z,5.33
2018-07-27T04:20:29.841Z,4.67
2018-07-27T04:22:46.853Z,4.70
2018-07-27T04:24:54.068Z,4.87
2018-07-27T04:26:58.132Z,5.23
2018-07-27T04:29:02.214Z,4.60
2018-07-27T04:31:06.436Z,4.80
2018-07-27T04:33:10.481Z,4.53
2018-07-27T04:35:14.658Z,5.43
2018-07-27T04:37:19.487Z,4.73
2018-07-27T04:39:23.542Z,5.13
2018-07-27T04:41:27.158Z,4.63
2018-07-27T04:43:31.609Z,4.90
2018-07-27T04:45:35.736Z,4.73
2018-07-27T04:47:39.804Z,4.77
2018-07-27T04:49:43.862Z,4.90
2018-07-27T04:51:48.069Z,4.97
2018-07-27T04:53:52.338Z,4.80
2018-07-27T04:55:56.386Z,5.10
2018-07-27T04:58:00.438Z,4.33
2018-07-27T05:00:05.456Z,4.87
2018-07-27T05:02:08.984Z,4.67
2018-07-27T05:04:13.007Z,4.60
2018-07-27T05:06:17.055Z,4.60
2018-07-27T05:08:21.263Z,4.57
2018-07-27T05:10:30.645Z,4.70
2018-07-27T05:12:34.726Z,5.10
2018-07-27T05:14:38.713Z,5.10
2018-07-27T05:16:42.744Z,4.73
2018-07-27T05:18:47.193Z,4.40
2018-07-27T05:20:51.376Z,3.90
2018-07-27T05:22:55.690Z,4.40
2018-07-27T05:24:59.765Z,4.33
2018-07-27T05:27:03.887Z,4.43
2018-07-27T05:29:08.152Z,4.57
2018-07-27T05:31:12.033Z,3.70
2018-07-27T05:33:15.835Z,3.70
2018-07-27T05:35:19.609Z,3.60
2018-07-27T05:37:23.681Z,3.93
2018-07-27T05:39:27.435Z,4.00
2018-07-27T05:41:31.244Z,3.67
2018-07-27T05:43:35.514Z,4.00
2018-07-27T05:45:39.329Z,3.63
2018-07-27T05:47:43.110Z,3.40
2018-07-27T05:49:46.892Z,3.30
2018-07-27T05:51:50.725Z,3.10
2018-07-27T05:53:54.592Z,3.23
2018-07-27T05:55:58.426Z,2.70
2018-07-27T05:58:02.240Z,3.33
2018-07-27T06:00:07.361Z,3.10
2018-07-27T06:02:11.667Z,3.00
2018-07-27T06:04:15.468Z,2.97
2018-07-27T06:06:19.239Z,2.80
2018-07-27T06:08:23.091Z,2.70
2018-07-27T06:10:27.140Z,2.50
2018-07-27T06:12:31.321Z,2.70
2018-07-27T06:14:35.428Z,2.87
2018-07-27T06:16:39.530Z,2.83
2018-07-27T06:18:46.297Z,2.63
2018-07-27T06:20:50.368Z,2.87
2018-07-27T06:22:54.779Z,2.77
2018-07-27T06:24:59.070Z,2.70
2018-07-27T06:27:03.094Z,2.53
2018-07-27T06:29:07.073Z,2.57
2018-07-27T06:31:10.858Z,2.40
2018-07-27T06:33:14.667Z,2.27
2018-07-27T06:35:18.440Z,3.10
2018-07-27T06:37:22.240Z,2.80
2018-07-27T06:39:26.047Z,2.73
2018-07-27T06:41:29.848Z,2.40
2018-07-27T06:43:33.641Z,2.60
2018-07-27T06:45:37.464Z,2.37
2018-07-27T06:47:41.306Z,2.50
2018-07-27T06:49:45.076Z,2.43
2018-07-27T06:51:50.362Z,2.30
2018-07-27T06:53:54.471Z,2.20
2018-07-27T06:55:58.257Z,2.37
2018-07-27T06:58:02.123Z,2.30
2018-07-27T07:00:06.732Z,2.13
2018-07-27T07:02:10.884Z,2.30
2018-07-27T07:04:15.411Z,2.07
2018-07-27T07:06:19.197Z,2.27
2018-07-27T07:08:23.244Z,2.37
2018-07-27T07:10:27.042Z,2.27
2018-07-27T07:12:30.900Z,2.20
2018-07-27T07:14:34.724Z,2.20
2018-07-27T07:16:38.909Z,2.07
2018-07-27T07:18:42.722Z,2.60
2018-07-27T07:20:46.512Z,2.10
2018-07-27T07:22:50.310Z,2.50
2018-07-27T07:24:54.159Z,2.30
2018-07-27T07:26:57.933Z,2.47
2018-07-27T07:29:02.016Z,2.70
2018-07-27T07:31:05.938Z,2.63
2018-07-27T07:33:09.795Z,2.90
2018-07-27T07:35:13.549Z,2.90
2018-07-27T07:37:17.326Z,3.20
2018-07-27T07:39:21.591Z,3.30
2018-07-27T07:41:25.481Z,3.30
2018-07-27T07:43:29.265Z,3.30
2018-07-27T07:45:33.046Z,3.77
2018-07-27T07:47:36.974Z,3.43
2018-07-27T07:49:40.752Z,3.93
2018-07-27T07:51:44.553Z,3.20
2018-07-27T07:53:48.378Z,3.50
2018-07-27T07:55:52.133Z,4.37
2018-07-27T07:57:55.924Z,4.03
2018-07-27T07:59:59.716Z,3.30
2018-07-27T08:02:03.540Z,4.00
2018-07-27T08:04:07.310Z,3.20
2018-07-27T08:06:11.142Z,3.80
2018-07-27T08:08:14.989Z,3.63
2018-07-27T08:10:18.778Z,3.63
2018-07-27T08:12:22.559Z,3.80
2018-07-27T08:14:26.324Z,3.70
2018-07-27T08:16:30.097Z,3.40
2018-07-27T08:18:33.911Z,3.80
2018-07-27T08:20:37.707Z,4.00
2018-07-27T08:22:41.485Z,3.43
2018-07-27T08:24:45.361Z,4.30
2018-07-27T08:26:55.416Z,3.80
2018-07-27T08:29:00.332Z,3.57
2018-07-27T08:31:04.171Z,3.60
2018-07-27T08:33:08.246Z,3.43
2018-07-27T08:35:12.132Z,3.70
2018-07-27T08:37:16.117Z,4.10
2018-07-27T08:39:22.286Z,3.30
2018-07-27T08:41:26.069Z,3.20
2018-07-27T08:43:29.894Z,3.50
2018-07-27T08:45:33.747Z,3.80
2018-07-27T08:47:37.553Z,3.50
2018-07-27T08:49:41.412Z,3.70
2018-07-27T08:51:45.198Z,3.47
2018-07-27T08:53:48.986Z,3.53
2018-07-27T08:55:52.843Z,3.73
2018-07-27T08:57:56.608Z,3.70
2018-07-27T09:00:00.370Z,3.57
2018-07-27T09:02:04.247Z,4.60
2018-07-27T09:04:08.139Z,3.50
2018-07-27T09:06:11.894Z,3.10
2018-07-27T09:08:15.704Z,3.67
2018-07-27T09:10:19.518Z,3.50
2018-07-27T09:12:23.349Z,3.07
2018-07-27T09:14:27.148Z,3.30
2018-07-27T09:16:31.336Z,3.50
2018-07-27T09:18:35.255Z,3.37
2018-07-27T09:20:38.998Z,4.00
2018-07-27T09:22:42.834Z,3.80
2018-07-27T09:24:46.741Z,3.33
2018-07-27T09:26:50.406Z,3.20
2018-07-27T09:28:54.311Z,3.23
2018-07-27T09:30:58.249Z,2.90
2018-07-27T09:33:02.059Z,3.57
2018-07-27T09:35:06.154Z,3.33
2018-07-27T09:37:09.929Z,3.30
2018-07-27T09:39:13.734Z,3.10
2018-07-27T09:41:17.524Z,3.33
2018-07-27T09:43:21.280Z,3.00
2018-07-27T09:45:25.067Z,3.50
2018-07-27T09:47:28.866Z,3.27
2018-07-27T09:49:32.632Z,3.63
2018-07-27T09:51:36.511Z,3.80
2018-07-27T09:53:40.321Z,2.90
2018-07-27T09:55:44.515Z,3.00
2018-07-27T09:57:48.392Z,3.30
2018-07-27T09:59:52.171Z,3.13
2018-07-27T10:01:55.964Z,3.10
2018-07-27T10:03:59.793Z,3.13
2018-07-27T10:06:03.605Z,3.20
2018-07-27T10:08:07.413Z,3.30
2018-07-27T10:10:11.254Z,3.27
2018-07-27T10:12:15.035Z,3.63
2018-07-27T10:14:18.868Z,3.20
2018-07-27T10:16:23.851Z,3.20
2018-07-27T10:18:27.680Z,3.10
2018-07-27T10:20:31.715Z,3.20
2018-07-27T10:22:35.514Z,3.37
2018-07-27T10:24:39.271Z,3.23
2018-07-27T10:26:43.041Z,4.00
2018-07-27T10:28:47.043Z,2.87
2018-07-27T10:30:50.809Z,3.33
2018-07-27T10:32:54.627Z,3.30
2018-07-27T10:34:58.491Z,3.07
2018-07-27T10:37:02.274Z,3.33
2018-07-27T10:39:07.630Z,3.20
2018-07-27T10:41:11.443Z,3.47
2018-07-27T10:43:15.214Z,3.50
2018-07-27T10:45:19.010Z,3.07
2018-07-27T10:47:22.464Z,3.63
2018-07-27T10:49:26.242Z,2.90
2018-07-27T10:51:30.090Z,3.20
2018-07-27T10:53:33.912Z,3.30
2018-07-27T10:55:37.771Z,3.43
2018-07-27T10:57:41.546Z,4.20
2018-07-27T10:59:45.336Z,3.50
2018-07-27T11:01:49.145Z,2.87
2018-07-27T11:03:52.938Z,3.07
2018-07-27T11:05:56.925Z,3.50
2018-07-27T11:08:00.705Z,2.80
2018-07-27T11:10:05.158Z,3.30
2018-07-27T11:12:09.052Z,3.13
2018-07-27T11:14:12.869Z,2.90
2018-07-27T11:16:16.770Z,3.00
2018-07-27T11:18:20.609Z,3.20
2018-07-27T11:20:24.517Z,3.33
2018-07-27T11:22:28.291Z,3.23
2018-07-27T11:24:32.193Z,3.23
2018-07-27T11:26:35.972Z,3.10
2018-07-27T11:28:39.866Z,2.90
2018-07-27T11:30:43.688Z,3.27
2018-07-27T11:32:47.458Z,3.20
2018-07-27T11:34:55.907Z,3.10
2018-07-27T11:36:59.691Z,2.70
2018-07-27T11:39:03.962Z,3.03
2018-07-27T11:41:07.829Z,3.37
2018-07-27T11:43:11.642Z,2.53
2018-07-27T11:45:15.550Z,3.03
2018-07-27T11:47:19.333Z,2.77
2018-07-27T11:49:23.113Z,2.83
2018-07-27T11:51:26.988Z,2.60
2018-07-27T11:53:31.149Z,3.17
2018-07-27T11:55:34.983Z,2.67
2018-07-27T11:57:38.748Z,3.10
2018-07-27T11:59:42.558Z,3.20
2018-07-27T12:01:46.387Z,3.10
2018-07-27T12:03:51.015Z,3.07
2018-07-27T12:05:54.900Z,2.63
2018-07-27T12:07:58.347Z,2.90
2018-07-27T12:10:02.159Z,2.97
2018-07-27T12:12:06.270Z,3.10
2018-07-27T12:14:10.369Z,2.97
2018-07-27T12:16:13.996Z,3.00
2018-07-27T12:18:17.790Z,3.13
2018-07-27T12:20:21.653Z,2.80
2018-07-27T12:22:25.469Z,2.90
2018-07-27T12:24:29.255Z,3.10
2018-07-27T12:26:33.183Z,2.80
2018-07-27T12:28:37.126Z,2.90
2018-07-27T12:30:40.503Z,2.97
2018-07-27T12:32:44.478Z,2.83
2018-07-27T12:34:48.427Z,2.90
2018-07-27T12:36:52.243Z,2.80
2018-07-27T12:38:56.147Z,3.07
2018-07-27T12:40:59.944Z,3.10
2018-07-27T12:43:03.800Z,2.83
2018-07-27T12:45:07.714Z,2.90
2018-07-27T12:47:11.455Z,2.33
2018-07-27T12:49:15.260Z,2.60
2018-07-27T12:51:19.125Z,3.00
2018-07-27T12:53:22.897Z,2.60
2018-07-27T12:55:26.704Z,3.27
2018-07-27T12:57:30.545Z,3.20
2018-07-27T12:59:34.350Z,3.20
2018-07-27T13:01:38.187Z,2.67
2018-07-27T13:03:42.019Z,3.07
2018-07-27T13:05:45.806Z,2.77
2018-07-27T13:07:49.558Z,2.70
2018-07-27T13:10:09.358Z,2.80
2018-07-27T13:12:13.212Z,2.50
2018-07-27T13:14:17.042Z,2.53
2018-07-27T13:16:20.914Z,3.00
2018-07-27T13:18:24.685Z,2.80
2018-07-27T13:20:39.620Z,2.73
2018-07-27T13:22:43.420Z,2.83
2018-07-27T13:25:02.166Z,2.50
2018-07-27T13:26:51.050Z,2.77
2018-07-27T13:28:54.964Z,2.60
2018-07-27T13:30:58.833Z,2.53
2018-07-27T13:33:02.652Z,2.70
2018-07-27T13:37:10.646Z,2.67
2018-07-27T13:39:14.452Z,2.83
2018-07-27T13:41:18.379Z,3.00
2018-07-27T13:43:22.178Z,2.70
2018-07-27T13:45:25.916Z,3.10
2018-07-27T13:47:29.752Z,3.30
2018-07-27T13:49:33.568Z,2.90
2018-07-27T13:51:37.336Z,2.70
2018-07-27T13:53:41.215Z,2.47
2018-07-27T13:55:45.052Z,2.43
2018-07-27T13:57:48.821Z,3.00
2018-07-27T13:59:52.829Z,2.50
2018-07-27T14:01:56.861Z,2.70
2018-07-27T14:04:00.679Z,3.00
2018-07-27T14:06:04.463Z,2.90
2018-07-27T14:08:08.304Z,2.60
2018-07-27T14:10:12.111Z,2.70
2018-07-27T14:12:15.958Z,2.83
2018-07-27T14:14:19.962Z,2.90
2018-07-27T14:16:23.746Z,2.70
2018-07-27T14:18:27.631Z,2.80
2018-07-27T14:20:31.065Z,2.83
2018-07-27T14:22:35.988Z,2.40
2018-07-27T14:24:39.791Z,2.80
2018-07-27T14:26:43.661Z,2.70
2018-07-27T14:28:47.661Z,2.60
2018-07-27T14:30:51.461Z,2.57
2018-07-27T14:32:55.211Z,2.40
2018-07-27T14:34:59.197Z,2.80
2018-07-27T14:37:02.569Z,2.60
2018-07-27T14:39:09.891Z,2.80
2018-07-27T14:41:13.709Z,3.10
2018-07-27T14:43:17.531Z,3.10
2018-07-27T14:45:21.423Z,2.70
2018-07-27T14:47:25.209Z,2.80
2018-07-27T14:49:29.031Z,2.80
2018-07-27T14:51:32.795Z,3.10
2018-07-27T14:53:36.646Z,3.17
2018-07-27T14:55:40.419Z,3.40
2018-07-27T14:57:44.227Z,3.17
2018-07-27T14:59:48.110Z,3.57
2018-07-27T15:01:52.060Z,3.13
2018-07-27T15:03:55.842Z,2.70
2018-07-27T15:05:59.624Z,3.07
2018-07-27T15:08:03.401Z,3.70
2018-07-27T15:10:07.339Z,2.97
2018-07-27T15:12:11.143Z,3.23
2018-07-27T15:14:14.933Z,2.57
2018-07-27T15:16:18.729Z,2.87
2018-07-27T15:18:22.545Z,2.70
2018-07-27T15:20:26.298Z,2.97
2018-07-27T15:22:30.089Z,3.03
2018-07-27T15:24:33.917Z,3.13
2018-07-27T15:26:37.736Z,2.87
2018-07-27T15:28:41.639Z,2.60
2018-07-27T15:30:45.586Z,3.00
2018-07-27T15:32:49.412Z,2.77
2018-07-27T15:34:53.265Z,2.83
2018-07-27T15:36:57.066Z,3.00
2018-07-27T15:39:00.855Z,2.63
2018-07-27T15:41:04.679Z,2.60
2018-07-27T15:43:08.483Z,2.47
2018-07-27T15:45:12.333Z,2.60
2018-07-27T15:47:16.158Z,2.77
2018-07-27T15:49:20.022Z,2.70
2018-07-27T15:51:23.828Z,2.93
2018-07-27T15:53:27.722Z,3.40
2018-07-27T15:55:31.591Z,2.80
2018-07-27T15:57:35.374Z,2.80
2018-07-27T15:59:39.366Z,3.07
2018-07-27T16:01:43.185Z,3.33
2018-07-27T16:03:47.088Z,2.63
2018-07-27T16:05:50.957Z,2.70
2018-07-27T16:07:54.782Z,2.77
2018-07-27T16:09:58.613Z,2.93
2018-07-27T16:12:02.399Z,2.83
2018-07-27T16:14:06.189Z,3.50
2018-07-27T16:16:10.008Z,3.00
2018-07-27T16:18:13.874Z,3.40
2018-07-27T16:20:17.695Z,3.07
2018-07-27T16:22:21.558Z,3.47
2018-07-27T16:24:25.488Z,3.10
2018-07-27T16:26:29.287Z,3.60
2018-07-27T16:28:33.194Z,3.10
2018-07-27T16:30:37.057Z,3.40
2018-07-27T16:32:40.851Z,3.70
2018-07-27T16:34:44.676Z,3.00
2018-07-27T16:36:48.431Z,3.23
2018-07-27T16:38:52.212Z,3.30
2018-07-27T16:40:56.052Z,3.27
2018-07-27T16:42:59.841Z,3.53
2018-07-27T16:45:03.753Z,3.10
2018-07-27T16:47:07.555Z,3.20
2018-07-27T16:49:11.312Z,3.77
2018-07-27T16:51:15.132Z,3.33
2018-07-27T16:53:18.905Z,3.80
2018-07-27T16:55:22.974Z,3.40
2018-07-27T16:57:27.070Z,3.53
2018-07-27T16:59:30.951Z,3.53
2018-07-27T17:01:35.299Z,3.10
2018-07-27T17:03:39.189Z,3.80
2018-07-27T17:05:43.663Z,3.70
2018-07-27T17:07:47.726Z,3.40
2018-07-27T17:09:51.861Z,3.20
2018-07-27T17:11:56.171Z,3.30
2018-07-27T17:14:01.394Z,3.40
2018-07-27T17:16:05.594Z,3.40
2018-07-27T17:18:09.799Z,3.33
2018-07-27T17:20:13.831Z,3.77
2018-07-27T17:22:17.861Z,3.40
2018-07-27T17:24:22.007Z,3.80
2018-07-27T17:26:26.170Z,3.60
2018-07-27T17:28:36.770Z,3.70
2018-07-27T17:30:44.178Z,3.50
2018-07-27T17:32:48.184Z,3.30
2018-07-27T17:34:52.037Z,3.20
2018-07-27T17:36:55.853Z,3.77
2018-07-27T17:38:59.628Z,3.70
2018-07-27T17:41:03.459Z,3.67
2018-07-27T17:43:07.358Z,2.93
2018-07-27T17:45:11.314Z,3.63
2018-07-27T17:47:15.422Z,3.40
2018-07-27T17:49:19.200Z,3.20
2018-07-27T17:51:23.300Z,3.43
2018-07-27T17:53:27.333Z,3.47
2018-07-27T17:55:34.024Z,4.00
2018-07-27T17:57:38.104Z,3.43
2018-07-27T17:59:42.085Z,3.27
2018-07-27T18:01:46.210Z,3.43
2018-07-27T18:03:50.106Z,3.27
2018-07-27T18:05:53.938Z,3.67
2018-07-27T18:07:58.040Z,3.50
2018-07-27T18:10:01.803Z,3.43
2018-07-27T18:12:06.065Z,3.33
2018-07-27T18:14:10.481Z,3.67
2018-07-27T18:16:14.559Z,4.10
2018-07-27T18:18:18.532Z,3.90
2018-07-27T18:20:23.635Z,3.83
2018-07-27T18:22:27.851Z,4.43
2018-07-27T18:24:31.791Z,5.43
2018-07-27T18:26:35.601Z,4.97
2018-07-27T18:28:39.839Z,3.77
2018-07-27T18:30:43.242Z,4.60
2018-07-27T18:32:47.028Z,4.10
2018-07-27T18:34:50.924Z,5.63
2018-07-27T18:36:54.737Z,4.90
2018-07-27T18:38:58.160Z,6.40
2018-07-27T18:41:02.216Z,5.40
2018-07-27T18:43:06.039Z,5.27
2018-07-27T18:45:10.870Z,5.03
2018-07-27T18:47:14.701Z,4.90
2018-07-27T18:49:18.608Z,5.20
2018-07-27T18:51:22.491Z,5.30
2018-07-27T18:53:26.340Z,4.30
2018-07-27T18:55:30.155Z,6.17
2018-07-27T18:57:34.083Z,6.00
2018-07-27T18:59:37.891Z,5.33
2018-07-27T19:01:41.934Z,5.37
2018-07-27T19:03:45.993Z,5.13
2018-07-27T19:05:49.966Z,5.00
2018-07-27T19:07:53.850Z,4.33
2018-07-27T19:09:57.648Z,4.70
2018-07-27T19:12:01.642Z,4.70
2018-07-27T19:14:05.572Z,4.27
2018-07-27T19:16:10.422Z,4.07
2018-07-27T19:18:14.328Z,4.43
2018-07-27T19:20:28.584Z,4.10
2018-07-27T19:22:32.585Z,4.40
2018-07-27T19:24:36.564Z,4.50
2018-07-27T19:26:40.535Z,4.37
2018-07-27T19:28:44.670Z,4.60
2018-07-27T19:30:48.995Z,3.90
2018-07-27T19:32:54.185Z,4.00
2018-07-27T19:34:57.974Z,4.30
2018-07-27T19:37:01.997Z,4.20
2018-07-27T19:39:09.227Z,4.07
2018-07-27T19:41:13.731Z,4.40
2018-07-27T19:43:18.262Z,5.17
2018-07-27T19:45:22.167Z,4.80
2018-07-27T19:47:26.217Z,4.90
2018-07-27T19:49:30.838Z,5.00
2018-07-27T19:51:34.783Z,5.47
2018-07-27T19:53:43.735Z,5.63
2018-07-27T19:55:48.131Z,5.07
2018-07-27T19:57:52.025Z,5.00
2018-07-27T19:59:57.302Z,4.73
2018-07-27T20:02:01.500Z,5.33
2018-07-27T20:04:07.020Z,5.17
2018-07-27T20:06:11.125Z,5.07
2018-07-27T20:08:16.184Z,5.30
2018-07-27T20:10:20.668Z,5.40
2018-07-27T20:12:24.784Z,6.13
2018-07-27T20:14:29.763Z,5.80
2018-07-27T20:16:34.621Z,5.50
2018-07-27T20:18:38.748Z,5.73
2018-07-27T20:20:43.592Z,6.17
2018-07-27T20:22:47.694Z,5.27
2018-07-27T20:24:53.712Z,5.50
2018-07-27T20:26:58.832Z,5.30
2018-07-27T20:29:04.779Z,5.80
2018-07-27T20:31:08.887Z,5.70
2018-07-27T20:33:13.627Z,5.30
2018-07-27T20:35:18.006Z,5.53
2018-07-27T20:37:23.278Z,5.80
2018-07-27T20:39:27.845Z,5.97
2018-07-27T20:41:32.303Z,5.67
2018-07-27T20:43:36.379Z,5.97
2018-07-27T20:45:40.398Z,5.13
2018-07-27T20:47:44.966Z,6.00
2018-07-27T20:49:49.277Z,5.90
2018-07-27T20:51:53.342Z,5.47
2018-07-27T20:53:57.528Z,5.73
2018-07-27T20:56:01.864Z,6.70
2018-07-27T20:58:06.264Z,5.83
2018-07-27T21:00:13.961Z,6.47
2018-07-27T21:02:18.262Z,6.23
2018-07-27T21:04:23.740Z,6.00
2018-07-27T21:06:28.034Z,6.13
2018-07-27T21:08:32.151Z,6.67
2018-07-27T21:10:36.235Z,5.67
2018-07-27T21:12:40.978Z,6.50
2018-07-27T21:14:44.972Z,5.90
2018-07-27T21:16:49.324Z,6.17
2018-07-27T21:18:53.268Z,6.50
2018-07-27T21:20:57.548Z,6.57
2018-07-27T21:23:01.794Z,6.90
2018-07-27T21:25:06.641Z,6.27
2018-07-27T21:27:10.934Z,5.60
2018-07-27T21:29:15.027Z,6.03
2018-07-27T21:31:19.304Z,6.40
2018-07-27T21:33:23.407Z,6.87
2018-07-27T21:35:27.449Z,6.53
2018-07-27T21:37:31.611Z,6.40
2018-07-27T21:39:35.595Z,5.97
2018-07-27T21:41:39.866Z,5.83
2018-07-27T21:43:43.919Z,6.80
2018-07-27T21:45:56.847Z,6.53
2018-07-27T21:48:01.140Z,6.23
2018-07-27T21:50:07.408Z,6.40
2018-07-27T21:52:11.620Z,6.60
2018-07-27T21:54:15.800Z,6.57
2018-07-27T21:56:19.987Z,6.20
2018-07-27T21:58:24.081Z,6.47
2018-07-27T22:00:28.720Z,7.30
2018-07-27T22:02:32.800Z,6.10
2018-07-27T22:04:37.117Z,6.30
2018-07-27T22:06:41.255Z,7.23
2018-07-27T22:08:45.143Z,6.23
2018-07-27T22:10:49.146Z,6.90
2018-07-27T22:12:53.329Z,7.27
2018-07-27T22:14:57.384Z,7.87
2018-07-27T22:17:01.397Z,7.87
2018-07-27T22:19:05.528Z,7.10
2018-07-27T22:21:09.508Z,7.90
2018-07-27T22:23:13.618Z,7.17
2018-07-27T22:25:17.941Z,7.10
2018-07-27T22:27:22.477Z,7.37
2018-07-27T22:29:26.837Z,8.13
2018-07-27T22:31:30.888Z,7.67
2018-07-27T22:33:34.903Z,7.43
2018-07-27T22:35:38.980Z,7.67
2018-07-27T22:37:43.001Z,8.00
2018-07-27T22:39:47.026Z,8.03
2018-07-27T22:41:51.009Z,8.53
2018-07-27T22:43:55.190Z,7.90
2018-07-27T22:45:59.228Z,9.30
2018-07-27T22:48:03.259Z,8.50
2018-07-27T22:50:07.763Z,8.40
2018-07-27T22:52:11.527Z,8.70
2018-07-27T22:54:15.605Z,8.83
2018-07-27T22:56:19.666Z,8.13
2018-07-27T22:58:23.722Z,8.30
2018-07-27T23:00:27.918Z,8.00
2018-07-27T23:02:32.038Z,8.10
2018-07-27T23:04:36.040Z,7.83
2018-07-27T23:06:40.004Z,6.87
2018-07-27T23:08:44.036Z,7.53
2018-07-27T23:10:48.036Z,8.00
2018-07-27T23:12:52.040Z,7.40
2018-07-27T23:14:56.050Z,7.10
2018-07-27T23:17:00.268Z,7.87
2018-07-27T23:19:04.499Z,7.73
2018-07-27T23:21:08.585Z,7.83
2018-07-27T23:23:12.718Z,7.03
2018-07-27T23:25:16.332Z,7.33
2018-07-27T23:27:20.384Z,7.43
2018-07-27T23:29:24.313Z,8.07
2018-07-27T23:31:28.324Z,7.83
2018-07-27T23:33:32.258Z,6.87
2018-07-27T23:35:36.447Z,7.80
2018-07-27T23:37:40.522Z,7.00
2018-07-27T23:39:44.650Z,6.30
2018-07-27T23:41:48.305Z,7.00
2018-07-27T23:43:52.601Z,7.10
2018-07-27T23:45:56.623Z,7.53
2018-07-27T23:48:00.572Z,7.67
2018-07-27T23:50:05.308Z,7.80
2018-07-27T23:52:09.057Z,6.80
2018-07-27T23:54:13.120Z,6.80
2018-07-27T23:56:17.275Z,6.50
2018-07-27T23:58:21.540Z,6.43
